CG Shrike — NPBG — position and weather

sailwx.info

Track history (hours):
 
Tides and Currents Weather Stations Pressure Air Temp Water Temp Dewpoint Dewpoint Depression Visibility Wind Speed Wind Dir Waves Ship Positions

CG Shrike

Last reported at 2017-Dec-10 13:09 UTC. Time now 2017-Dec-13 20:46 UTC.
Position N 40°28' W 074°01'.

Length 26 m; draft 1.7 m.

Type: Law enforcement. MMSI: 366999618.

Date/timePositionNaut miles runAvg speedWind from/ knotsBaromVisibWave heightAir tempDewpointWater temp
2017-Dec-10 13:09N 40°28' W 074°01'0 1.0
2017-Dec-10 13:00N 40°28' W 074°01'4 8.4
2017-Dec-10 12:30N 40°32' W 074°02'4 8.0
2017-Dec-10 12:00N 40°36' W 074°01'0 0.0
2017-Dec-10 11:30N 40°36' W 074°01'0 0.0
2017-Dec-10 11:00N 40°36' W 074°01'0 0.0
2017-Dec-10 10:30N 40°36' W 074°01'0 0.0
2017-Dec-10 10:00N 40°36' W 074°01'0 0.0
2017-Dec-10 09:30N 40°36' W 074°01'0 0.0
2017-Dec-10 09:00N 40°36' W 074°01'0 0.0
2017-Dec-10 08:30N 40°36' W 074°01'0 0.0
2017-Dec-10 08:00N 40°36' W 074°01'0 0.0
2017-Dec-10 07:29N 40°36' W 074°01'0 0.0
2017-Dec-10 07:00N 40°36' W 074°01'0 0.0
2017-Dec-10 06:31N 40°36' W 074°01'0 0.0
2017-Dec-10 06:00N 40°36' W 074°01'0 0.0
2017-Dec-10 05:31N 40°36' W 074°01'0 0.0
2017-Dec-10 05:01N 40°36' W 074°01'0 0.0
2017-Dec-10 04:30N 40°36' W 074°01'0 0.0
2017-Dec-10 04:00N 40°36' W 074°01'0 0.1
2017-Dec-10 03:30N 40°36' W 074°01'0 0.1
2017-Dec-10 03:00N 40°36' W 074°01'0 0.0
2017-Dec-10 02:29N 40°36' W 074°01'0 0.0
2017-Dec-10 02:00N 40°36' W 074°01'0 0.0
2017-Dec-10 01:30N 40°36' W 074°01'0 0.0
2017-Dec-10 01:00N 40°36' W 074°01'0 0.0
2017-Dec-10 00:30N 40°36' W 074°01'0 0.0
2017-Dec-10 00:00N 40°36' W 074°01'0 0.0
2017-Dec-09 23:30N 40°36' W 074°01'0 0.0
2017-Dec-09 23:00N 40°36' W 074°01'0 0.6
2017-Dec-09 22:30N 40°36' W 074°01'4 8.2
2017-Dec-09 22:00N 40°31' W 074°00'6 9.9
2017-Dec-09 21:21N 40°29' W 073°53'3 8.3
2017-Dec-09 21:00N 40°26' W 073°55'2 4.4
2017-Dec-09 20:26N 40°25' W 073°58'11 0.3
2017-Dec-08 12:09N 40°36' W 074°01'0 0.0
2017-Dec-08 11:51N 40°36' W 074°01'0 0.0
2017-Dec-08 11:25N 40°36' W 074°01'0 0.0
2017-Dec-08 11:00N 40°36' W 074°01'0 0.0
2017-Dec-08 10:30N 40°36' W 074°01'0 0.0
2017-Dec-08 10:00N 40°36' W 074°01'0 0.0
2017-Dec-08 09:18N 40°36' W 074°01'0 0.0
2017-Dec-08 09:00N 40°36' W 074°01'0 0.0
2017-Dec-08 08:24N 40°36' W 074°01'0 0.0
2017-Dec-08 07:58N 40°36' W 074°01'0 0.0
2017-Dec-08 07:22N 40°36' W 074°01'0 0.0
2017-Dec-08 06:55N 40°36' W 074°01'0 0.0
2017-Dec-08 06:22N 40°36' W 074°01'0 0.0
2017-Dec-08 05:55N 40°36' W 074°01'0 0.0
2017-Dec-08 05:28N 40°36' W 074°01'0 0.0
2017-Dec-08 04:55N 40°36' W 074°01'0 0.0
2017-Dec-08 04:25N 40°36' W 074°01'0 0.0
2017-Dec-08 03:58N 40°36' W 074°01'0 0.0
2017-Dec-08 03:25N 40°36' W 074°01'0 0.0
2017-Dec-08 02:52N 40°36' W 074°01'0 0.0
2017-Dec-08 02:19N 40°36' W 074°01'0 0.0
2017-Dec-08 01:55N 40°36' W 074°01'0 0.0
2017-Dec-08 01:25N 40°36' W 074°01'0 0.0
2017-Dec-08 00:51N 40°36' W 074°01'0 0.0
2017-Dec-08 00:24N 40°36' W 074°01'0 0.0
2017-Dec-08 00:00N 40°36' W 074°01'0 0.0
2017-Dec-07 23:00N 40°36' W 074°01'0 0.0
2017-Dec-07 22:24N 40°36' W 074°01'0 0.0
2017-Dec-07 21:16N 40°36' W 074°01'0 0.0
2017-Dec-07 20:49N 40°36' W 074°01'0 0.0
2017-Dec-07 20:19N 40°36' W 074°01'0 0.0
2017-Dec-07 19:55N 40°36' W 074°01'0 0.0
2017-Dec-07 19:28N 40°36' W 074°01'2 3.4
2017-Dec-07 19:00N 40°34' W 074°02'  
2017-Dec-03 20:43N 40°51' W 073°47'1 6.2
2017-Dec-03 20:30N 40°49' W 073°47'510.6
2017-Dec-03 19:59N 40°48' W 073°54'510.2
2017-Dec-03 19:30N 40°44' W 073°58'510.2
2017-Dec-03 19:00N 40°40' W 074°02'510.5
2017-Dec-03 18:30N 40°35' W 074°02'5 9.5
2017-Dec-03 17:59N 40°31' W 073°59'  
Track history (hours):
 
Tides and Currents Weather Stations Pressure Air Temp Water Temp Dewpoint Dewpoint Depression Visibility Wind Speed Wind Dir Waves Ship Positions

CG Shrike

Last reported at 2017-Dec-10 13:09 UTC. Time now 2017-Dec-13 20:46 UTC.
Position N 40°28' W 074°01'.

Length 26 m; draft 1.7 m.

Type: Law enforcement. MMSI: 366999618.

Date/timePositionNaut miles runAvg speedWind from/ knotsBaromVisibWave heightAir tempDewpointWater temp
2017-Dec-10 13:09N 40°28' W 074°01'0 1.0
2017-Dec-10 13:00N 40°28' W 074°01'4 8.4
2017-Dec-10 12:30N 40°32' W 074°02'4 8.0
2017-Dec-10 12:00N 40°36' W 074°01'0 0.0
2017-Dec-10 11:30N 40°36' W 074°01'0 0.0
2017-Dec-10 11:00N 40°36' W 074°01'0 0.0
2017-Dec-10 10:30N 40°36' W 074°01'0 0.0
2017-Dec-10 10:00N 40°36' W 074°01'0 0.0
2017-Dec-10 09:30N 40°36' W 074°01'0 0.0
2017-Dec-10 09:00N 40°36' W 074°01'0 0.0
2017-Dec-10 08:30N 40°36' W 074°01'0 0.0
2017-Dec-10 08:00N 40°36' W 074°01'0 0.0
2017-Dec-10 07:29N 40°36' W 074°01'0 0.0
2017-Dec-10 07:00N 40°36' W 074°01'0 0.0
2017-Dec-10 06:31N 40°36' W 074°01'0 0.0
2017-Dec-10 06:00N 40°36' W 074°01'0 0.0
2017-Dec-10 05:31N 40°36' W 074°01'0 0.0
2017-Dec-10 05:01N 40°36' W 074°01'0 0.0
2017-Dec-10 04:30N 40°36' W 074°01'0 0.0
2017-Dec-10 04:00N 40°36' W 074°01'0 0.1
2017-Dec-10 03:30N 40°36' W 074°01'0 0.1
2017-Dec-10 03:00N 40°36' W 074°01'0 0.0
2017-Dec-10 02:29N 40°36' W 074°01'0 0.0
2017-Dec-10 02:00N 40°36' W 074°01'0 0.0
2017-Dec-10 01:30N 40°36' W 074°01'0 0.0
2017-Dec-10 01:00N 40°36' W 074°01'0 0.0
2017-Dec-10 00:30N 40°36' W 074°01'0 0.0
2017-Dec-10 00:00N 40°36' W 074°01'0 0.0
2017-Dec-09 23:30N 40°36' W 074°01'0 0.0
2017-Dec-09 23:00N 40°36' W 074°01'0 0.6
2017-Dec-09 22:30N 40°36' W 074°01'4 8.2
2017-Dec-09 22:00N 40°31' W 074°00'6 9.9
2017-Dec-09 21:21N 40°29' W 073°53'3 8.3
2017-Dec-09 21:00N 40°26' W 073°55'2 4.4
2017-Dec-09 20:26N 40°25' W 073°58'11 0.3
2017-Dec-08 12:09N 40°36' W 074°01'0 0.0
2017-Dec-08 11:51N 40°36' W 074°01'0 0.0
2017-Dec-08 11:25N 40°36' W 074°01'0 0.0
2017-Dec-08 11:00N 40°36' W 074°01'0 0.0
2017-Dec-08 10:30N 40°36' W 074°01'0 0.0
2017-Dec-08 10:00N 40°36' W 074°01'0 0.0
2017-Dec-08 09:18N 40°36' W 074°01'0 0.0
2017-Dec-08 09:00N 40°36' W 074°01'0 0.0
2017-Dec-08 08:24N 40°36' W 074°01'0 0.0
2017-Dec-08 07:58N 40°36' W 074°01'0 0.0
2017-Dec-08 07:22N 40°36' W 074°01'0 0.0
2017-Dec-08 06:55N 40°36' W 074°01'0 0.0
2017-Dec-08 06:22N 40°36' W 074°01'0 0.0
2017-Dec-08 05:55N 40°36' W 074°01'0 0.0
2017-Dec-08 05:28N 40°36' W 074°01'0 0.0
2017-Dec-08 04:55N 40°36' W 074°01'0 0.0
2017-Dec-08 04:25N 40°36' W 074°01'0 0.0
2017-Dec-08 03:58N 40°36' W 074°01'0 0.0
2017-Dec-08 03:25N 40°36' W 074°01'0 0.0
2017-Dec-08 02:52N 40°36' W 074°01'0 0.0
2017-Dec-08 02:19N 40°36' W 074°01'0 0.0
2017-Dec-08 01:55N 40°36' W 074°01'0 0.0
2017-Dec-08 01:25N 40°36' W 074°01'0 0.0
2017-Dec-08 00:51N 40°36' W 074°01'0 0.0
2017-Dec-08 00:24N 40°36' W 074°01'0 0.0
2017-Dec-08 00:00N 40°36' W 074°01'0 0.0
2017-Dec-07 23:00N 40°36' W 074°01'0 0.0
2017-Dec-07 22:24N 40°36' W 074°01'0 0.0
2017-Dec-07 21:16N 40°36' W 074°01'0 0.0
2017-Dec-07 20:49N 40°36' W 074°01'0 0.0
2017-Dec-07 20:19N 40°36' W 074°01'0 0.0
2017-Dec-07 19:55N 40°36' W 074°01'0 0.0
2017-Dec-07 19:28N 40°36' W 074°01'2 3.4
2017-Dec-07 19:00N 40°34' W 074°02'  
2017-Dec-03 20:43N 40°51' W 073°47'1 6.2
2017-Dec-03 20:30N 40°49' W 073°47'510.6
2017-Dec-03 19:59N 40°48' W 073°54'510.2
2017-Dec-03 19:30N 40°44' W 073°58'510.2
2017-Dec-03 19:00N 40°40' W 074°02'510.5
2017-Dec-03 18:30N 40°35' W 074°02'5 9.5
2017-Dec-03 17:59N 40°31' W 073°59'  

Dump ship's entire track history